Time;durP1;ratioP1;P1;durP2;ratioP2;P2;SDS_P1;SDS_P2;PMS_P1;PMS_P2;Temp;Humidity;BMP_temperature;BMP_pressure;BME280_temperature;BME280_humidity;BME280_pressure;Samples;Min_cycle;Max_cycle;Signal;HPM_P1;HPM_P2
2023/04/11 00:01:31;;;;;;;;;;;;;;;9.58;76.18;99408.88;4993651;28;20386;-84
2023/04/11 00:03:56;;;;;;;;;;;;;;;9.68;75.91;99400.81;4993487;28;19917;-84
2023/04/11 00:06:22;;;;;;;;;;;;;;;9.67;76.02;99399.06;4993512;28;19921;-84
2023/04/11 00:08:48;;;;;;;;;;;;;;;9.69;76.44;99396.41;4994049;28;19965;-83
2023/04/11 00:11:13;;;;;;;;;;;;;;;9.63;76.62;99405.25;4985322;28;20004;-84
2023/04/11 00:13:38;;;;;;;;;;;;;;;10.01;76.60;99400.28;4974862;28;20028;-82
2023/04/11 00:16:04;;;;;;;;;;;;;;;9.93;76.22;99397.78;4982521;28;19976;-84
2023/04/11 00:18:29;;;;;;;;;;;;;;;9.80;75.61;99405.00;4993755;28;19924;-83
2023/04/11 00:20:55;;;;;;;;;;;;;;;9.76;76.66;99407.69;4992278;28;19913;-84
2023/04/11 00:23:20;;;;;;;;;;;;;;;9.71;76.14;99404.28;4993329;28;19975;-83
2023/04/11 00:25:46;;;;;;;;;;;;;;;9.72;76.45;99409.53;4993844;28;20311;-84
2023/04/11 00:28:11;;;;;;;;;;;;;;;9.80;76.28;99404.13;4993824;28;19967;-84
2023/04/11 00:30:37;;;;;;;;;;;;;;;9.68;76.88;99402.56;4992627;28;19910;-84
2023/04/11 00:33:02;;;;;;;;;;;;;;;9.76;76.91;99410.34;4991965;28;20012;-83
2023/04/11 00:35:28;;;;;;;;;;;;;;;9.73;77.67;99411.28;4992245;28;20052;-83
2023/04/11 00:37:55;;;;;;;;;;;;;;;9.56;78.21;99406.28;4992859;28;20075;-84
2023/04/11 00:40:20;;;;;;;;;;;;;;;9.54;79.52;99408.03;4993139;28;19914;-85
2023/04/11 00:42:46;;;;;;;;;;;;;;;9.57;79.45;99401.88;4992024;28;19921;-84
2023/04/11 00:45:11;;;;;;;;;;;;;;;9.48;79.87;99403.75;4993008;28;20012;-84
2023/04/11 00:47:37;;;;;;;;;;;;;;;9.65;79.62;99402.59;4991236;28;20155;-85
2023/04/11 00:50:03;;;;;;;;;;;;;;;9.46;79.91;99402.03;4974634;28;19918;-84
2023/04/11 00:52:28;;;;;;;;;;;;;;;9.65;79.88;99398.22;4993272;28;19921;-84
2023/04/11 00:54:53;;;;;;;;;;;;;;;9.77;78.80;99402.41;4992919;28;19913;-85
2023/04/11 00:57:20;;;;;;;;;;;;;;;9.72;78.63;99409.53;4992674;28;19916;-83
2023/04/11 00:59:47;;;;;;;;;;;;;;;9.73;78.51;99399.84;4992074;28;19917;-84
2023/04/11 01:02:13;;;;;;;;;;;;;;;9.65;78.97;99405.22;4991172;28;20310;-83
2023/04/11 01:04:39;;;;;;;;;;;;;;;9.65;78.73;99400.84;4992380;28;19917;-84
2023/04/11 01:07:05;;;;;;;;;;;;;;;9.72;78.24;99403.41;4992602;28;20455;-84
2023/04/11 01:09:32;;;;;;;;;;;;;;;9.59;79.12;99408.84;4991036;28;19917;-84
2023/04/11 01:11:58;;;;;;;;;;;;;;;9.56;79.12;99402.75;4992472;28;19921;-84
2023/04/11 01:14:24;;;;;;;;;;;;;;;9.73;80.27;99407.75;4991002;28;19928;-85
2023/04/11 01:16:50;;;;;;;;;;;;;;;9.55;80.76;99399.25;4992487;28;19921;-83
2023/04/11 01:19:17;;;;;;;;;;;;;;;9.57;80.69;99396.59;4991904;28;19925;-84
2023/04/11 01:21:43;;;;;;;;;;;;;;;9.61;80.05;99399.16;4991685;28;19957;-85
2023/04/11 01:24:10;;;;;;;;;;;;;;;9.35;80.95;99394.28;4991266;28;19925;-84
2023/04/11 01:26:35;;;;;;;;;;;;;;;9.55;80.82;99399.25;4991588;28;19953;-85
2023/04/11 01:29:01;;;;;;;;;;;;;;;9.45;80.91;99398.53;4991821;28;20052;-84
2023/04/11 01:31:26;;;;;;;;;;;;;;;9.58;80.86;99393.94;4992060;28;20414;-84
2023/04/11 01:33:52;;;;;;;;;;;;;;;9.70;80.30;99389.34;4991930;28;19930;-85
2023/04/11 01:36:17;;;;;;;;;;;;;;;9.66;79.59;99385.91;4986773;28;19925;-85
2023/04/11 01:38:43;;;;;;;;;;;;;;;9.59;80.16;99376.38;4991328;28;20370;-85
2023/04/11 01:41:09;;;;;;;;;;;;;;;9.54;79.58;99372.94;4991862;28;20008;-86
2023/04/11 01:43:35;;;;;;;;;;;;;;;9.46;79.55;99373.94;4990684;28;19980;-85
2023/04/11 01:46:00;;;;;;;;;;;;;;;9.51;79.83;99381.75;4991925;28;19953;-85
2023/04/11 01:48:26;;;;;;;;;;;;;;;9.43;79.20;99375.75;4991810;28;19923;-85
2023/04/11 01:50:54;;;;;;;;;;;;;;;9.42;78.42;99379.25;4991657;28;19991;-84
2023/04/11 01:53:19;;;;;;;;;;;;;;;9.58;78.48;99378.13;4984684;28;20405;-84
2023/04/11 01:55:45;;;;;;;;;;;;;;;9.61;78.09;99372.81;4990548;28;20017;-84
2023/04/11 01:58:10;;;;;;;;;;;;;;;9.76;77.79;99369.06;4991473;28;20020;-85
2023/04/11 02:00:35;;;;;;;;;;;;;;;9.67;78.26;99371.88;4992257;28;20268;-84
2023/04/11 02:03:01;;;;;;;;;;;;;;;9.68;77.14;99374.47;4991433;28;20306;-85
2023/04/11 02:05:26;;;;;;;;;;;;;;;9.71;77.40;99377.94;4989774;28;19921;-84
2023/04/11 02:07:52;;;;;;;;;;;;;;;9.68;76.58;99369.19;4991723;28;19913;-84
2023/04/11 02:10:17;;;;;;;;;;;;;;;9.83;77.02;99365.41;4991338;28;19914;-85
2023/04/11 02:12:42;;;;;;;;;;;;;;;9.68;77.67;99361.31;4991756;28;19914;-85
2023/04/11 02:15:08;;;;;;;;;;;;;;;9.63;78.39;99357.00;4990116;28;19925;-86
2023/04/11 02:17:33;;;;;;;;;;;;;;;9.68;78.22;99355.16;4987680;28;19922;-84
2023/04/11 02:19:58;;;;;;;;;;;;;;;9.62;78.81;99361.41;4991151;28;19922;-83
2023/04/11 02:22:24;;;;;;;;;;;;;;;9.76;78.04;99355.91;4990963;28;19920;-84
2023/04/11 02:24:50;;;;;;;;;;;;;;;9.45;78.76;99350.25;4991023;28;19925;-86
2023/04/11 02:27:15;;;;;;;;;;;;;;;9.57;79.39;99351.84;4991508;28;20395;-84
2023/04/11 02:29:40;;;;;;;;;;;;;;;9.64;78.39;99348.22;4989276;28;19916;-84
2023/04/11 02:32:06;;;;;;;;;;;;;;;9.53;77.48;99350.13;4990190;28;19918;-85
2023/04/11 02:34:31;;;;;;;;;;;;;;;9.53;77.79;99342.22;4991295;28;20291;-83
2023/04/11 02:36:56;;;;;;;;;;;;;;;9.54;78.01;99352.75;4991163;28;19916;-84
2023/04/11 02:39:25;;;;;;;;;;;;;;;9.74;77.32;99341.88;4989111;28;20252;-86
2023/04/11 02:41:50;;;;;;;;;;;;;;;9.57;77.22;99333.41;4988051;28;20020;-85
2023/04/11 02:44:17;;;;;;;;;;;;;;;9.45;77.55;99324.81;4982561;28;20389;-85
2023/04/11 02:46:42;;;;;;;;;;;;;;;9.34;77.52;99316.19;4990427;28;19984;-87
2023/04/11 02:49:07;;;;;;;;;;;;;;;9.41;78.28;99319.63;4991029;28;19952;-84
2023/04/11 02:51:33;;;;;;;;;;;;;;;9.42;77.31;99321.34;4989668;28;19928;-84
2023/04/11 02:53:58;;;;;;;;;;;;;;;9.50;77.58;99312.44;4990622;28;19976;-84
2023/04/11 02:56:23;;;;;;;;;;;;;;;9.42;78.00;99311.69;4991212;28;19922;-84
2023/04/11 02:58:51;;;;;;;;;;;;;;;9.37;78.26;99305.63;4990980;28;19913;-84
2023/04/11 03:01:20;;;;;;;;;;;;;;;9.38;78.57;99306.50;4990897;28;19925;-84
2023/04/11 03:03:45;;;;;;;;;;;;;;;9.09;78.40;99257.84;4990290;28;20361;-85
2023/04/11 03:06:11;;;;;;;;;;;;;;;9.33;77.67;99296.06;4994064;28;19918;-84
2023/04/11 03:08:36;;;;;;;;;;;;;;;9.35;77.68;99310.06;4994933;28;19975;-85
2023/04/11 03:11:02;;;;;;;;;;;;;;;9.41;77.89;99304.69;4995089;28;20321;-84
2023/04/11 03:13:27;;;;;;;;;;;;;;;9.42;77.28;99308.19;4992870;28;19922;-85
2023/04/11 03:15:53;;;;;;;;;;;;;;;9.33;77.85;99293.44;4993054;28;20462;-83
2023/04/11 03:18:19;;;;;;;;;;;;;;;9.44;76.53;99306.41;4994423;28;19920;-84
2023/04/11 03:20:44;;;;;;;;;;;;;;;9.40;75.56;99310.84;4991782;28;20311;-86
2023/04/11 03:23:09;;;;;;;;;;;;;;;9.34;76.02;99300.41;4990262;28;19917;-86
2023/04/11 03:25:37;;;;;;;;;;;;;;;9.37;75.62;99294.22;4992683;28;19918;-85
2023/04/11 03:28:03;;;;;;;;;;;;;;;9.37;76.19;99296.88;4994537;28;19917;-85
2023/04/11 03:30:29;;;;;;;;;;;;;;;9.37;75.84;99304.75;4993755;28;19918;-85
2023/04/11 03:32:54;;;;;;;;;;;;;;;9.40;75.54;99308.19;4993609;28;19921;-85
2023/04/11 03:35:19;;;;;;;;;;;;;;;9.31;75.07;99301.34;4990463;28;19925;-85
2023/04/11 03:37:45;;;;;;;;;;;;;;;9.40;74.98;99307.34;4994277;28;20000;-85
2023/04/11 03:40:11;;;;;;;;;;;;;;;9.50;74.34;99296.63;4993972;28;20380;-86
2023/04/11 03:42:36;;;;;;;;;;;;;;;9.49;74.71;99305.41;4994114;28;19968;-88
2023/04/11 03:45:01;;;;;;;;;;;;;;;9.42;74.57;99297.66;4990343;28;19925;-84
2023/04/11 03:47:27;;;;;;;;;;;;;;;9.45;74.28;99295.84;4986941;28;19961;-87
2023/04/11 03:49:52;;;;;;;;;;;;;;;9.62;73.64;99289.41;4986010;28;19921;-85
2023/04/11 03:52:17;;;;;;;;;;;;;;;9.66;74.13;99293.75;4974162;28;19914;-85
2023/04/11 03:54:43;;;;;;;;;;;;;;;9.47;73.72;99287.94;4986164;28;20387;-86
2023/04/11 03:57:09;;;;;;;;;;;;;;;9.66;73.66;99285.84;4992166;28;20418;-87
2023/04/11 03:59:34;;;;;;;;;;;;;;;9.57;73.48;99284.22;4987256;28;19922;-88
2023/04/11 04:01:59;;;;;;;;;;;;;;;9.80;73.08;99286.44;4993254;28;19929;-85
2023/04/11 04:04:25;;;;;;;;;;;;;;;9.82;72.93;99291.69;4987503;28;19956;-84
2023/04/11 04:06:55;;;;;;;;;;;;;;;9.80;73.20;99288.22;4983315;28;19918;-85
2023/04/11 04:09:21;;;;;;;;;;;;;;;9.62;73.45;99282.41;4987338;28;19924;-86
2023/04/11 04:11:46;;;;;;;;;;;;;;;9.74;73.21;99283.06;4988955;28;19922;-87
2023/04/11 04:14:11;;;;;;;;;;;;;;;9.75;72.96;99285.66;4986806;28;20479;-87
2023/04/11 04:16:37;;;;;;;;;;;;;;;9.67;72.59;99295.50;4976246;28;19980;-85
2023/04/11 04:19:02;;;;;;;;;;;;;;;9.62;73.27;99294.69;4983300;28;19928;-85
2023/04/11 04:21:31;;;;;;;;;;;;;;;9.86;72.27;99291.59;4989755;28;19925;-82
2023/04/11 04:24:02;;;;;;;;;;;;;;;9.89;72.31;99289.84;4990948;28;19914;-84
2023/04/11 04:26:28;;;;;;;;;;;;;;;9.82;72.11;99292.56;4974441;28;19925;-87
2023/04/11 04:28:56;;;;;;;;;;;;;;;9.77;71.90;99293.53;4992342;28;20005;-87
2023/04/11 04:31:24;;;;;;;;;;;;;;;9.73;72.40;99286.59;4989926;28;19987;-87
2023/04/11 04:33:50;;;;;;;;;;;;;;;9.74;71.15;99299.72;4991222;28;19917;-86
2023/04/11 04:36:16;;;;;;;;;;;;;;;9.68;71.06;99289.31;4992899;28;19921;-88
2023/04/11 04:38:46;;;;;;;;;;;;;;;9.81;71.72;99284.69;4990708;28;20024;-83
2023/04/11 04:41:14;;;;;;;;;;;;;;;9.77;71.20;99285.66;4991755;28;19957;-82
2023/04/11 04:43:41;;;;;;;;;;;;;;;9.77;71.91;99281.22;4988752;28;19969;-85
2023/04/11 04:46:07;;;;;;;;;;;;;;;9.78;71.73;99276.84;4991032;28;20424;-81
2023/04/11 04:48:32;;;;;;;;;;;;;;;9.88;71.56;99267.00;4991656;28;19957;-82
2023/04/11 04:50:57;;;;;;;;;;;;;;;9.89;71.24;99264.34;4990364;28;19953;-83
2023/04/11 04:53:22;;;;;;;;;;;;;;;9.99;71.49;99257.13;4983117;28;19924;-83
2023/04/11 04:55:48;;;;;;;;;;;;;;;9.90;71.02;99263.47;5003077;28;20375;-83
2023/04/11 04:58:13;;;;;;;;;;;;;;;9.92;71.25;99261.66;4977309;28;19918;-83
2023/04/11 05:00:39;;;;;;;;;;;;;;;9.89;70.70;99245.03;4979534;28;19921;-86
2023/04/11 05:03:04;;;;;;;;;;;;;;;10.09;70.42;99245.50;4982840;28;20005;-86
2023/04/11 05:05:30;;;;;;;;;;;;;;;9.95;70.26;99250.19;4970219;28;19924;-89
2023/04/11 05:07:55;;;;;;;;;;;;;;;10.13;70.29;99247.19;4963600;28;19918;-85
2023/04/11 05:10:21;;;;;;;;;;;;;;;10.28;70.27;99248.63;4986582;28;19995;-85
2023/04/11 05:12:46;;;;;;;;;;;;;;;10.24;69.97;99240.81;4988500;28;19922;-83
2023/04/11 05:15:13;;;;;;;;;;;;;;;10.29;69.66;99245.09;4985270;28;19917;-85
2023/04/11 05:17:39;;;;;;;;;;;;;;;10.32;69.76;99238.91;4983755;28;19924;-83
2023/04/11 05:20:06;;;;;;;;;;;;;;;10.32;69.52;99249.44;4985178;28;19918;-83
2023/04/11 05:22:33;;;;;;;;;;;;;;;10.33;69.73;99243.28;4988586;28;19918;-83
2023/04/11 05:24:58;;;;;;;;;;;;;;;10.39;69.46;99237.88;4983249;28;19989;-85
2023/04/11 05:27:23;;;;;;;;;;;;;;;10.56;69.45;99240.16;4970820;28;19963;-83
2023/04/11 05:29:49;;;;;;;;;;;;;;;10.53;68.25;99241.09;4983052;28;20387;-84
2023/04/11 05:32:14;;;;;;;;;;;;;;;10.60;68.82;99238.31;4981378;28;19948;-83
2023/04/11 05:34:53;;;;;;;;;;;;;;;10.57;69.07;99231.34;4985084;28;19975;-85
2023/04/11 05:37:19;;;;;;;;;;;;;;;10.77;68.54;99240.56;4974995;28;19976;-84
2023/04/11 05:39:44;;;;;;;;;;;;;;;10.79;68.08;99236.13;4985630;28;19945;-84
2023/04/11 05:42:09;;;;;;;;;;;;;;;10.75;68.25;99235.31;4991138;28;19917;-83
2023/04/11 05:44:35;;;;;;;;;;;;;;;10.85;68.51;99242.13;4984824;28;19918;-84
2023/04/11 05:47:00;;;;;;;;;;;;;;;10.79;68.49;99237.00;4973571;28;19925;-84
2023/04/11 05:49:25;;;;;;;;;;;;;;;10.85;67.63;99228.06;4980522;28;20298;-85
2023/04/11 05:51:51;;;;;;;;;;;;;;;10.90;68.70;99237.59;4975766;28;20295;-84
2023/04/11 05:54:29;;;;;;;;;;;;;;;11.01;67.58;99239.13;4978536;28;20375;-84
2023/04/11 05:56:55;;;;;;;;;;;;;;;11.07;67.12;99238.97;4975104;28;19925;-85
2023/04/11 05:59:22;;;;;;;;;;;;;;;11.10;66.97;99236.25;4979318;28;19918;-85
2023/04/11 06:01:49;;;;;;;;;;;;;;;11.12;67.09;99231.81;4976095;28;19914;-84
2023/04/11 06:04:14;;;;;;;;;;;;;;;10.90;67.35;99234.09;4978752;28;20031;-84
2023/04/11 06:06:40;;;;;;;;;;;;;;;10.88;67.11;99234.13;4976855;28;20371;-84
2023/04/11 06:09:07;;;;;;;;;;;;;;;10.93;67.34;99237.53;4977056;28;19928;-84
2023/04/11 06:11:33;;;;;;;;;;;;;;;10.94;68.16;99233.13;4977896;28;19910;-83
2023/04/11 06:13:58;;;;;;;;;;;;;;;10.93;67.08;99226.97;4976154;28;19925;-84
2023/04/11 06:16:24;;;;;;;;;;;;;;;11.14;68.06;99234.41;4978895;28;19925;-84
2023/04/11 06:18:49;;;;;;;;;;;;;;;10.97;67.39;99221.63;4975185;28;20020;-85
2023/04/11 06:21:14;;;;;;;;;;;;;;;10.92;67.67;99216.44;4979618;28;20442;-84
2023/04/11 06:23:40;;;;;;;;;;;;;;;11.14;67.62;99226.50;4974133;28;19945;-85
2023/04/11 06:26:05;;;;;;;;;;;;;;;11.23;66.88;99223.63;4980220;28;19918;-85
2023/04/11 06:28:30;;;;;;;;;;;;;;;11.22;67.25;99229.81;4974192;28;19922;-83
2023/04/11 06:30:56;;;;;;;;;;;;;;;11.19;66.71;99211.41;4980084;28;19937;-84
2023/04/11 06:33:21;;;;;;;;;;;;;;;11.21;66.53;99218.38;4974341;28;19918;-84
2023/04/11 06:35:46;;;;;;;;;;;;;;;11.24;66.38;99220.09;4980385;28;20411;-85
2023/04/11 06:38:12;;;;;;;;;;;;;;;11.15;66.23;99213.25;4956356;28;19918;-85
2023/04/11 06:40:37;;;;;;;;;;;;;;;11.13;67.02;99216.84;4980653;28;20375;-84
2023/04/11 06:43:02;;;;;;;;;;;;;;;10.82;66.81;99205.25;4972627;28;19922;-85
2023/04/11 06:45:28;;;;;;;;;;;;;;;10.98;66.53;99208.38;4986891;28;19913;-85
2023/04/11 06:47:53;;;;;;;;;;;;;;;11.08;66.54;99214.31;4991110;28;19924;-85
2023/04/11 06:50:18;;;;;;;;;;;;;;;10.97;66.38;99200.50;4991382;28;19969;-84
2023/04/11 06:52:44;;;;;;;;;;;;;;;11.01;65.96;99199.53;4990701;28;19957;-86
2023/04/11 06:55:13;;;;;;;;;;;;;;;11.05;65.72;99219.69;4990163;28;19920;-86
2023/04/11 06:57:38;;;;;;;;;;;;;;;10.87;65.93;99199.88;4980721;28;19914;-85
2023/04/11 07:00:06;;;;;;;;;;;;;;;10.95;66.16;99210.25;4971214;28;20295;-83
2023/04/11 07:02:34;;;;;;;;;;;;;;;11.07;65.89;99202.03;4970383;28;19920;-84
2023/04/11 07:04:59;;;;;;;;;;;;;;;11.04;65.53;99210.03;4970902;28;20443;-85
2023/04/11 07:07:25;;;;;;;;;;;;;;;11.23;65.92;99213.94;4970721;28;20013;-84
2023/04/11 07:09:50;;;;;;;;;;;;;;;11.06;65.69;99211.72;4970459;28;19949;-85
2023/04/11 07:12:15;;;;;;;;;;;;;;;11.07;66.12;99216.06;4971129;28;19981;-87
2023/04/11 07:14:41;;;;;;;;;;;;;;;11.14;67.01;99211.53;4970489;28;19914;-86
2023/04/11 07:17:06;;;;;;;;;;;;;;;11.22;65.68;99213.97;4970548;28;20414;-85
2023/04/11 07:19:32;;;;;;;;;;;;;;;11.27;65.96;99214.72;4970480;28;20442;-87
2023/04/11 07:21:57;;;;;;;;;;;;;;;11.14;65.88;99213.28;4970722;28;20006;-85
2023/04/11 07:24:23;;;;;;;;;;;;;;;11.32;66.85;99220.75;4970972;28;19965;-86
2023/04/11 07:26:50;;;;;;;;;;;;;;;11.37;66.77;99203.03;4970704;28;20378;-86
2023/04/11 07:29:16;;;;;;;;;;;;;;;11.45;65.97;99218.69;4970428;28;19914;-89
2023/04/11 07:31:43;;;;;;;;;;;;;;;11.45;65.56;99203.69;4969175;28;20005;-85
2023/04/11 07:34:09;;;;;;;;;;;;;;;11.50;66.30;99194.78;4971767;28;19914;-89
2023/04/11 07:36:34;;;;;;;;;;;;;;;11.89;65.86;99197.22;4971999;28;19914;-87
2023/04/11 07:38:59;;;;;;;;;;;;;;;12.11;65.52;99200.16;4975118;28;19914;-88
2023/04/11 07:41:25;;;;;;;;;;;;;;;12.21;64.10;99188.41;4972839;28;19914;-86
2023/04/11 07:43:50;;;;;;;;;;;;;;;12.23;63.28;99186.56;4973103;28;19914;-87
2023/04/11 07:46:16;;;;;;;;;;;;;;;12.60;62.73;99190.72;4971216;28;19914;-89
2023/04/11 07:48:41;;;;;;;;;;;;;;;12.85;62.28;99193.47;4971193;28;20412;-88
2023/04/11 07:51:07;;;;;;;;;;;;;;;12.85;62.44;99187.31;4973281;28;19917;-87
2023/04/11 07:53:33;;;;;;;;;;;;;;;13.18;60.40;99187.13;4974981;28;19914;-88
2023/04/11 07:55:58;;;;;;;;;;;;;;;13.22;61.37;99191.38;4975087;28;19921;-88
2023/04/11 07:58:24;;;;;;;;;;;;;;;13.23;60.27;99196.63;4974911;28;19910;-87
2023/04/11 08:00:49;;;;;;;;;;;;;;;13.44;60.58;99183.63;4974760;28;20375;-87
2023/04/11 08:03:15;;;;;;;;;;;;;;;13.37;59.97;99182.94;4974491;28;19914;-87
2023/04/11 08:05:41;;;;;;;;;;;;;;;12.89;58.94;99188.94;4974988;28;19921;-88
2023/04/11 08:08:06;;;;;;;;;;;;;;;12.82;58.48;99185.63;4974335;28;20448;-87
2023/04/11 08:10:32;;;;;;;;;;;;;;;12.55;58.65;99179.44;4974831;28;19968;-86
2023/04/11 08:12:58;;;;;;;;;;;;;;;12.57;60.20;99176.75;4974509;28;19914;-89
2023/04/11 08:15:23;;;;;;;;;;;;;;;12.70;59.15;99171.00;4974386;28;19914;-89
2023/04/11 08:17:49;;;;;;;;;;;;;;;12.60;57.56;99180.16;4973970;28;19918;-88
2023/04/11 08:20:14;;;;;;;;;;;;;;;12.40;57.98;99175.47;4956788;28;20004;-89
2023/04/11 08:22:43;;;;;;;;;;;;;;;12.51;59.20;99157.50;4974848;28;19921;-88
2023/04/11 08:25:09;;;;;;;;;;;;;;;12.72;56.78;99169.16;4977952;28;19924;-89
2023/04/11 08:27:35;;;;;;;;;;;;;;;12.50;58.74;99162.84;4993925;28;19914;-89
2023/04/11 08:30:02;;;;;;;;;;;;;;;12.49;58.40;99161.09;4993982;28;20017;-90
2023/04/11 08:32:27;;;;;;;;;;;;;;;12.57;59.43;99166.16;4994048;28;20000;-88
2023/04/11 08:34:53;;;;;;;;;;;;;;;12.61;57.30;99146.63;4993428;28;19956;-89
2023/04/11 08:37:18;;;;;;;;;;;;;;;12.76;57.59;99163.78;4992055;28;19914;-87
2023/04/11 08:39:43;;;;;;;;;;;;;;;12.85;57.02;99158.19;4993390;28;19914;-88
2023/04/11 08:42:28;;;;;;;;;;;;;;;12.83;57.19;99152.94;4993447;28;19914;-90
2023/04/11 08:44:58;;;;;;;;;;;;;;;12.66;55.48;99152.63;4993153;28;19918;-89
2023/04/11 08:47:23;;;;;;;;;;;;;;;12.57;56.34;99152.94;4993072;28;19925;-87
2023/04/11 08:49:49;;;;;;;;;;;;;;;12.98;56.47;99148.94;4993403;28;19910;-88
2023/04/11 08:52:15;;;;;;;;;;;;;;;13.03;56.38;99132.91;4993200;28;19913;-86
2023/04/11 08:54:40;;;;;;;;;;;;;;;12.83;56.14;99144.16;4993352;28;20303;-86
2023/04/11 08:57:06;;;;;;;;;;;;;;;12.85;56.18;99150.25;4991491;28;20367;-87
2023/04/11 08:59:34;;;;;;;;;;;;;;;12.84;55.58;99137.94;4985256;28;19914;-87
2023/04/11 09:02:09;;;;;;;;;;;;;;;12.88;54.06;99136.91;4955605;28;19914;-89
2023/04/11 09:04:39;;;;;;;;;;;;;;;12.89;56.00;99128.06;4984549;28;19913;-82
2023/04/11 09:07:04;;;;;;;;;;;;;;;12.99;55.13;99124.19;4993177;28;19940;-86
2023/04/11 09:09:30;;;;;;;;;;;;;;;13.06;55.48;99124.84;4976623;28;19914;-91
2023/04/11 09:11:55;;;;;;;;;;;;;;;13.12;54.02;99113.19;5013834;28;19947;-90
2023/04/11 09:14:25;;;;;;;;;;;;;;;13.21;54.46;99116.38;4988469;28;19914;-89
2023/04/11 09:16:54;;;;;;;;;;;;;;;13.11;53.26;99111.44;4998707;28;19928;-87
2023/04/11 09:19:27;;;;;;;;;;;;;;;13.38;53.72;99101.72;4981192;28;20311;-92
2023/04/11 09:21:58;;;;;;;;;;;;;;;13.48;53.42;99105.72;4988511;28;19922;-92
2023/04/11 09:24:25;;;;;;;;;;;;;;;13.52;54.06;99102.06;4991138;28;19928;-92
2023/04/11 09:27:04;;;;;;;;;;;;;;;13.58;52.89;99108.94;4974009;28;19914;-92
2023/04/11 09:29:37;;;;;;;;;;;;;;;13.53;52.72;99103.81;4990744;28;19975;-91
2023/04/11 09:32:02;;;;;;;;;;;;;;;13.75;53.28;99100.34;4971175;28;19914;-88
2023/04/11 09:34:28;;;;;;;;;;;;;;;13.57;52.51;99096.59;4980604;28;20422;-88
2023/04/11 09:36:54;;;;;;;;;;;;;;;13.63;53.35;99100.81;4972695;28;19925;-90
2023/04/11 09:39:27;;;;;;;;;;;;;;;13.61;52.74;99096.44;4986404;28;19914;-90
2023/04/11 09:41:52;;;;;;;;;;;;;;;13.83;52.01;99090.31;4971731;28;20491;-86
2023/04/11 09:44:17;;;;;;;;;;;;;;;14.40;52.75;99090.75;4973073;28;20013;-87
2023/04/11 09:46:56;;;;;;;;;;;;;;;14.07;50.95;99077.91;4977128;28;20444;-87
2023/04/11 09:49:24;;;;;;;;;;;;;;;13.83;50.73;99063.81;4990998;28;19929;-87
2023/04/11 09:51:53;;;;;;;;;;;;;;;14.17;51.15;99075.75;4990961;28;20374;-89
2023/04/11 09:54:21;;;;;;;;;;;;;;;14.77;52.28;99065.38;4974450;28;19913;-87
2023/04/11 09:56:47;;;;;;;;;;;;;;;14.77;50.12;99067.19;4990979;28;19983;-87
2023/04/11 09:59:13;;;;;;;;;;;;;;;14.79;51.26;99055.56;4991385;28;20415;-90
2023/04/11 10:01:39;;;;;;;;;;;;;;;14.79;50.14;99057.34;4991121;28;19936;-89
2023/04/11 10:04:05;;;;;;;;;;;;;;;14.86;50.05;99057.03;4974290;28;20411;-86
2023/04/11 10:06:39;;;;;;;;;;;;;;;14.79;49.37;99054.69;4991351;28;19920;-87
2023/04/11 10:09:14;;;;;;;;;;;;;;;14.54;49.64;99052.19;4991216;28;19920;-88
2023/04/11 10:11:43;;;;;;;;;;;;;;;14.53;50.78;99055.75;4991164;28;19920;-90
2023/04/11 10:14:30;;;;;;;;;;;;;;;14.81;49.74;99051.06;4990229;28;19949;-87
2023/04/11 10:17:13;;;;;;;;;;;;;;;14.90;48.77;99047.13;4982673;28;19924;-87
2023/04/11 10:19:38;;;;;;;;;;;;;;;15.34;51.59;99039.00;4991026;28;19920;-85
2023/04/11 10:22:03;;;;;;;;;;;;;;;15.40;48.34;99038.72;4990836;28;19914;-87
2023/04/11 10:24:29;;;;;;;;;;;;;;;15.21;49.71;99025.41;4991475;28;19913;-88
2023/04/11 10:27:03;;;;;;;;;;;;;;;15.34;50.25;99036.34;4990586;28;19914;-89
2023/04/11 10:29:29;;;;;;;;;;;;;;;15.31;49.28;99038.28;4973574;28;20284;-88
2023/04/11 10:32:06;;;;;;;;;;;;;;;15.57;50.18;99016.69;4990883;28;19972;-86
2023/04/11 10:34:31;;;;;;;;;;;;;;;15.66;48.65;99023.41;4991684;28;20387;-87
2023/04/11 10:37:02;;;;;;;;;;;;;;;15.68;48.60;99013.53;4990644;28;19917;-90
2023/04/11 10:39:46;;;;;;;;;;;;;;;16.05;48.93;99011.81;5005935;28;19968;-88
2023/04/11 10:42:31;;;;;;;;;;;;;;;16.26;46.68;98998.41;4991144;28;19994;-92
2023/04/11 10:45:16;;;;;;;;;;;;;;;15.95;46.21;99002.56;5005719;28;19983;-88
2023/04/11 10:47:42;;;;;;;;;;;;;;;16.13;46.77;98990.16;5005596;28;19917;-87
2023/04/11 10:50:25;;;;;;;;;;;;;;;16.21;46.23;98987.13;4972489;28;19914;-88
2023/04/11 10:52:53;;;;;;;;;;;;;;;16.06;45.93;98986.06;4990559;28;19918;-91
2023/04/11 10:55:19;;;;;;;;;;;;;;;16.18;44.00;98993.44;4989403;28;19913;-87
2023/04/11 10:58:07;;;;;;;;;;;;;;;16.64;44.57;98976.97;4990838;28;19913;-89
2023/04/11 11:03:17;;;;;;;;;;;;;;;16.24;40.62;98968.34;4990424;28;20016;-91
2023/04/11 11:05:42;;;;;;;;;;;;;;;16.40;40.25;98971.94;4990509;28;19920;-87
2023/04/11 11:08:08;;;;;;;;;;;;;;;16.00;41.83;98965.09;4990590;28;20310;-87
2023/04/11 11:10:34;;;;;;;;;;;;;;;16.31;40.85;98952.94;4991009;28;19971;-89
2023/04/11 11:13:00;;;;;;;;;;;;;;;16.49;44.12;98941.34;4991043;28;19913;-93
2023/04/11 11:15:26;;;;;;;;;;;;;;;16.68;43.26;98948.38;5005576;28;19921;-89
2023/04/11 11:17:51;;;;;;;;;;;;;;;16.59;39.53;98934.63;4990536;28;19941;-91
2023/04/11 11:20:18;;;;;;;;;;;;;;;16.25;39.49;98938.13;4991081;28;19921;-91
2023/04/11 11:22:57;;;;;;;;;;;;;;;16.28;39.01;98932.66;4991023;28;19925;-91
2023/04/11 11:25:24;;;;;;;;;;;;;;;16.04;39.26;98929.44;5008794;28;19935;-91
2023/04/11 11:27:56;;;;;;;;;;;;;;;16.32;38.58;98922.72;4977207;28;19936;-86
2023/04/11 11:30:22;;;;;;;;;;;;;;;16.49;37.57;98916.53;4995015;28;20013;-91
2023/04/11 11:32:53;;;;;;;;;;;;;;;16.61;38.43;98916.75;4995297;28;20004;-94
2023/04/11 11:35:19;;;;;;;;;;;;;;;16.89;38.26;98910.00;4994445;28;19914;-93
2023/04/11 11:37:45;;;;;;;;;;;;;;;16.90;40.95;98913.50;4995337;28;19921;-93
2023/04/11 11:40:13;;;;;;;;;;;;;;;17.23;37.88;98908.19;4993861;28;19928;-91
2023/04/11 11:42:39;;;;;;;;;;;;;;;17.25;36.50;98916.09;5009534;28;19918;-91
2023/04/11 11:45:14;;;;;;;;;;;;;;;16.96;37.43;98906.09;4994240;28;19940;-94
2023/04/11 11:47:41;;;;;;;;;;;;;;;16.97;37.09;98906.94;4994469;28;20750;-91
2023/04/11 11:50:07;;;;;;;;;;;;;;;17.01;38.31;98905.84;4993340;28;19913;-92
2023/04/11 11:52:33;;;;;;;;;;;;;;;16.56;37.42;98900.16;4977560;28;19921;-91
2023/04/11 11:55:00;;;;;;;;;;;;;;;16.47;36.41;98884.69;4995195;28;19918;-91
2023/04/11 11:57:26;;;;;;;;;;;;;;;16.49;38.43;98887.25;4976937;28;20004;-93
2023/04/11 11:59:56;;;;;;;;;;;;;;;16.27;36.45;98893.69;4991908;28;19968;-88
2023/04/11 12:02:22;;;;;;;;;;;;;;;16.28;38.55;98882.97;4994686;28;20033;-89
2023/04/11 12:04:47;;;;;;;;;;;;;;;16.35;38.85;98887.97;4994248;28;19933;-91
2023/04/11 12:07:13;;;;;;;;;;;;;;;16.38;37.71;98882.50;4994182;28;19967;-91
2023/04/11 12:09:39;;;;;;;;;;;;;;;16.13;37.72;98878.44;4993068;28;19957;-94
2023/04/11 12:12:07;;;;;;;;;;;;;;;16.02;37.19;98880.75;4994543;28;19924;-91
2023/04/11 12:14:33;;;;;;;;;;;;;;;15.86;36.21;98876.19;4992618;28;19914;-89
2023/04/11 12:16:58;;;;;;;;;;;;;;;16.19;37.86;98859.50;4994275;28;19917;-90
2023/04/11 12:19:23;;;;;;;;;;;;;;;16.19;38.31;98862.16;5008790;28;20371;-90
2023/04/11 12:21:49;;;;;;;;;;;;;;;16.31;38.14;98873.94;4993749;28;20413;-91
2023/04/11 12:24:14;;;;;;;;;;;;;;;16.62;39.23;98862.56;4993765;28;19914;-90
2023/04/11 12:26:40;;;;;;;;;;;;;;;16.68;37.80;98858.69;4993618;28;19914;-90
2023/04/11 12:29:06;;;;;;;;;;;;;;;16.72;37.56;98854.94;4992697;28;19925;-89
2023/04/11 12:31:31;;;;;;;;;;;;;;;16.46;37.79;98849.19;4992575;28;19921;-89
2023/04/11 12:34:00;;;;;;;;;;;;;;;16.59;38.06;98845.88;4993730;28;20012;-91
2023/04/11 12:36:28;;;;;;;;;;;;;;;16.55;37.35;98834.53;4992757;28;19992;-91
2023/04/11 12:38:53;;;;;;;;;;;;;;;16.37;37.90;98843.50;4993525;28;19918;-92
2023/04/11 12:41:39;;;;;;;;;;;;;;;16.31;37.36;98841.16;4992574;28;20004;-91
2023/04/11 12:44:05;;;;;;;;;;;;;;;16.60;38.51;98843.13;4993505;28;19914;-90
2023/04/11 12:46:32;;;;;;;;;;;;;;;16.63;39.53;98828.81;4993192;28;20325;-89
2023/04/11 12:48:57;;;;;;;;;;;;;;;16.51;40.37;98822.31;4993161;28;19929;-89
2023/04/11 12:51:22;;;;;;;;;;;;;;;16.53;39.75;98823.13;4993495;28;19913;-89